createdAt,value
2022-10-11T00:01:58.755Z,20.02
2022-10-11T00:04:26.778Z,20.03
2022-10-11T00:06:54.794Z,20.02
2022-10-11T00:09:22.804Z,20.02
2022-10-11T00:11:50.810Z,19.98
2022-10-11T00:14:18.821Z,19.98
2022-10-11T00:16:46.855Z,19.98
2022-10-11T00:19:14.849Z,19.99
2022-10-11T00:21:42.865Z,19.96
2022-10-11T00:24:11.302Z,19.94
2022-10-11T00:26:43.197Z,19.99
2022-10-11T00:29:13.833Z,20.01
2022-10-11T00:31:44.635Z,19.97
2022-10-11T00:34:13.150Z,19.96
2022-10-11T00:36:41.190Z,19.92
2022-10-11T00:39:09.203Z,19.97
2022-10-11T00:41:37.237Z,19.98
2022-10-11T00:44:12.492Z,19.96
2022-10-11T00:46:41.621Z,19.94
2022-10-11T00:49:22.186Z,19.96
2022-10-11T00:51:52.924Z,19.95
2022-10-11T00:54:23.638Z,19.94
2022-10-11T00:56:54.807Z,19.95
2022-10-11T00:59:25.266Z,19.96
2022-10-11T01:01:53.289Z,19.93
2022-10-11T01:04:21.314Z,19.93
2022-10-11T01:06:49.785Z,19.93
2022-10-11T01:09:19.272Z,19.94
2022-10-11T01:11:47.774Z,19.91
2022-10-11T01:15:49.290Z,19.86
2022-10-11T01:18:23.810Z,19.91
2022-10-11T01:23:29.204Z,19.93
2022-10-11T01:32:45.935Z,19.91
2022-10-11T01:36:27.477Z,19.90
2022-10-11T01:39:03.213Z,19.89
2022-10-11T01:41:35.434Z,19.90
2022-10-11T01:44:04.218Z,19.91
2022-10-11T01:46:33.657Z,19.90
2022-10-11T01:49:02.548Z,19.90
2022-10-11T01:51:32.314Z,19.89
2022-10-11T01:54:18.748Z,19.88
2022-10-11T01:57:30.001Z,19.91
2022-10-11T02:00:16.118Z,19.90
2022-10-11T02:02:54.052Z,19.88
2022-10-11T02:07:59.298Z,19.87
2022-10-11T02:10:32.913Z,19.85
2022-10-11T02:13:03.854Z,19.84
2022-10-11T02:15:32.685Z,19.81
2022-10-11T02:18:03.022Z,19.86
2022-10-11T02:20:33.550Z,19.85
2022-10-11T02:23:06.103Z,19.86
2022-10-11T02:25:35.451Z,19.86
2022-10-11T02:28:07.945Z,19.85
2022-10-11T02:30:36.690Z,19.82
2022-10-11T02:33:06.323Z,19.82
2022-10-11T02:35:37.586Z,19.81
2022-10-11T02:38:23.602Z,19.82
2022-10-11T02:40:55.503Z,19.84
2022-10-11T02:43:30.142Z,19.80
2022-10-11T02:46:02.077Z,19.83
2022-10-11T02:48:32.265Z,19.83
2022-10-11T02:51:00.302Z,19.79
2022-10-11T02:53:29.414Z,19.80
2022-10-11T02:55:57.464Z,19.79
2022-10-11T02:58:25.556Z,19.77
2022-10-11T03:00:53.638Z,19.77
2022-10-11T03:03:21.684Z,19.76
2022-10-11T03:05:49.719Z,19.76
2022-10-11T03:08:17.947Z,19.40
2022-10-11T03:10:45.969Z,19.75
2022-10-11T03:13:18.166Z,19.73
2022-10-11T03:16:02.369Z,19.72
2022-10-11T03:18:31.397Z,19.71
2022-10-11T03:21:02.355Z,19.71
2022-10-11T03:23:30.434Z,19.71
2022-10-11T03:25:58.436Z,19.68
2022-10-11T03:28:26.520Z,19.69
2022-10-11T03:30:57.116Z,19.70
2022-10-11T03:33:25.114Z,19.73
2022-10-11T03:35:53.141Z,19.69
2022-10-11T03:38:22.085Z,19.67
2022-10-11T03:40:50.346Z,19.66
2022-10-11T03:43:18.798Z,19.66
2022-10-11T03:45:47.062Z,19.64
2022-10-11T03:48:15.203Z,19.68
2022-10-11T03:50:43.225Z,19.67
2022-10-11T03:53:11.314Z,19.56
2022-10-11T03:55:40.390Z,19.68
2022-10-11T03:58:08.827Z,19.67
2022-10-11T04:00:37.327Z,19.68
2022-10-11T04:03:05.343Z,19.70
2022-10-11T04:05:36.365Z,19.59
2022-10-11T04:08:07.366Z,19.61
2022-10-11T04:10:39.793Z,19.59
2022-10-11T04:13:07.833Z,19.71
2022-10-11T04:15:36.665Z,19.71
2022-10-11T04:18:05.414Z,19.52
2022-10-11T04:20:33.530Z,19.50
2022-10-11T04:23:01.514Z,19.51
2022-10-11T04:25:29.346Z,19.55
2022-10-11T04:27:57.248Z,19.56
2022-10-11T04:30:25.074Z,19.59
2022-10-11T04:32:53.089Z,19.61
2022-10-11T04:35:21.094Z,19.58
2022-10-11T04:37:49.116Z,19.63
2022-10-11T04:40:17.136Z,19.72
2022-10-11T04:42:45.215Z,19.75
2022-10-11T04:45:13.247Z,19.75
2022-10-11T04:47:41.491Z,19.74
2022-10-11T04:50:09.506Z,19.70
2022-10-11T04:52:37.342Z,19.71
2022-10-11T04:55:05.740Z,19.70
2022-10-11T04:57:33.764Z,19.70
2022-10-11T05:00:01.574Z,19.65
2022-10-11T05:02:29.664Z,19.64
2022-10-11T05:04:57.733Z,19.59
2022-10-11T05:07:25.727Z,19.60
2022-10-11T05:09:54.037Z,19.46
2022-10-11T05:12:22.223Z,19.47
2022-10-11T05:14:50.075Z,19.52
2022-10-11T05:17:18.065Z,19.63
2022-10-11T05:19:45.893Z,18.91
2022-10-11T05:22:13.878Z,19.44
2022-10-11T05:24:41.904Z,19.73
2022-10-11T05:27:09.896Z,19.85
2022-10-11T05:29:37.910Z,19.92
2022-10-11T05:32:06.176Z,19.96
2022-10-11T05:34:34.192Z,19.94
2022-10-11T05:37:02.186Z,19.93
2022-10-11T05:39:30.218Z,20.02
2022-10-11T05:41:58.230Z,20.00
2022-10-11T05:44:26.453Z,19.99
2022-10-11T05:46:54.446Z,19.98
2022-10-11T05:49:22.555Z,19.98
2022-10-11T05:51:50.584Z,19.98
2022-10-11T05:54:18.576Z,19.99
2022-10-11T05:56:46.592Z,20.00
2022-10-11T05:59:14.840Z,20.01
2022-10-11T06:01:42.820Z,20.00
2022-10-11T06:04:11.468Z,20.01
2022-10-11T06:06:39.485Z,20.01
2022-10-11T06:09:07.521Z,20.02
2022-10-11T06:11:35.520Z,20.01
2022-10-11T06:14:03.541Z,20.01
2022-10-11T06:16:31.554Z,20.05
2022-10-11T06:18:59.576Z,20.01
2022-10-11T06:21:27.587Z,20.21
2022-10-11T06:24:00.830Z,20.12
2022-10-11T06:26:29.435Z,20.15
2022-10-11T06:28:58.481Z,20.14
2022-10-11T06:31:26.500Z,20.10
2022-10-11T06:33:54.489Z,19.99
2022-10-11T06:36:22.602Z,20.04
2022-10-11T06:38:53.686Z,20.04
2022-10-11T06:41:23.806Z,20.03
2022-10-11T06:43:51.726Z,20.02
2022-10-11T06:46:20.889Z,20.02
2022-10-11T06:48:49.072Z,20.02
2022-10-11T06:51:18.406Z,20.01
2022-10-11T06:53:50.427Z,20.01
2022-10-11T06:56:18.614Z,20.02
2022-10-11T06:58:46.457Z,20.02
2022-10-11T07:01:20.127Z,20.02
2022-10-11T07:03:48.605Z,20.09
2022-10-11T07:06:20.864Z,20.06
2022-10-11T07:08:49.336Z,20.04
2022-10-11T07:11:24.379Z,20.04
2022-10-11T07:13:53.366Z,20.04
2022-10-11T07:16:21.936Z,20.05
2022-10-11T07:18:57.263Z,20.05
2022-10-11T07:21:27.929Z,20.05
2022-10-11T07:23:55.801Z,20.06
2022-10-11T07:26:23.807Z,20.08
2022-10-11T07:28:51.633Z,20.08
2022-10-11T07:31:21.291Z,20.10
2022-10-11T07:33:49.403Z,20.10
2022-10-11T07:36:17.414Z,20.10
2022-10-11T07:38:46.698Z,20.12
2022-10-11T07:41:14.761Z,20.13
2022-10-11T07:43:47.626Z,20.14
2022-10-11T07:46:16.259Z,20.15
2022-10-11T07:48:44.262Z,20.21
2022-10-11T07:51:16.571Z,20.25
2022-10-11T07:53:45.509Z,20.23
2022-10-11T07:56:14.613Z,20.26
2022-10-11T07:58:42.797Z,20.24
2022-10-11T08:01:11.693Z,20.30
2022-10-11T08:03:39.955Z,20.33
2022-10-11T08:06:09.730Z,20.34
2022-10-11T08:08:38.258Z,20.33
2022-10-11T08:11:06.577Z,20.42
2022-10-11T08:13:34.906Z,20.49
2022-10-11T08:16:09.576Z,20.58
2022-10-11T08:18:37.573Z,20.72
2022-10-11T08:21:09.527Z,20.89
2022-10-11T08:23:37.514Z,20.90
2022-10-11T08:26:05.856Z,21.04
2022-10-11T08:28:34.304Z,21.27
2022-10-11T08:31:05.087Z,21.41
2022-10-11T08:33:32.972Z,21.66
2022-10-11T08:36:04.903Z,21.67
2022-10-11T08:38:33.540Z,21.77
2022-10-11T08:41:01.616Z,21.92
2022-10-11T08:45:15.689Z,21.73
2022-10-11T08:47:45.093Z,21.53
2022-10-11T08:50:20.929Z,21.54
2022-10-11T08:52:53.910Z,21.72
2022-10-11T08:55:25.571Z,21.65
2022-10-11T08:57:57.210Z,21.49
2022-10-11T09:00:28.921Z,21.58
2022-10-11T09:03:41.079Z,21.57
2022-10-11T09:06:18.858Z,21.55
2022-10-11T09:11:46.596Z,21.58
2022-10-11T09:14:43.239Z,21.67
2022-10-11T09:20:42.859Z,21.57
2022-10-11T09:23:23.961Z,21.54
2022-10-11T09:26:12.701Z,21.37
2022-10-11T09:29:01.331Z,21.29
2022-10-11T09:31:30.131Z,21.18
2022-10-11T09:33:59.504Z,21.07
2022-10-11T09:36:42.107Z,21.09
2022-10-11T09:39:30.579Z,21.00
2022-10-11T09:42:02.570Z,20.87
2022-10-11T09:44:33.234Z,20.81
2022-10-11T09:47:01.467Z,20.77
2022-10-11T09:49:40.877Z,20.74
2022-10-11T09:52:15.462Z,20.72
2022-10-11T09:54:45.142Z,20.70
2022-10-11T09:57:24.349Z,20.70
2022-10-11T10:00:02.029Z,20.79
2022-10-11T10:02:30.736Z,20.81
2022-10-11T10:05:03.360Z,20.76
2022-10-11T10:07:32.500Z,20.73
2022-10-11T10:10:04.613Z,20.66
2022-10-11T10:12:32.460Z,20.64
2022-10-11T10:15:08.141Z,20.61
2022-10-11T10:17:36.294Z,20.59
2022-10-11T10:20:05.497Z,20.61
2022-10-11T10:22:35.435Z,20.69
2022-10-11T10:25:07.582Z,20.73
2022-10-11T10:27:35.570Z,20.78
2022-10-11T10:30:15.576Z,20.79
2022-10-11T10:32:53.811Z,20.88
2022-10-11T10:35:39.571Z,20.86
2022-10-11T10:38:24.111Z,20.86
2022-10-11T10:40:56.362Z,20.88
2022-10-11T10:43:33.613Z,20.90
2022-10-11T10:46:19.949Z,20.83
2022-10-11T10:52:55.384Z,20.86
2022-10-11T10:56:44.624Z,20.90
2022-10-11T10:59:33.708Z,20.91
2022-10-11T11:02:28.063Z,20.95
2022-10-11T11:05:45.626Z,20.98
2022-10-11T11:08:15.972Z,20.90
2022-10-11T11:11:11.112Z,20.84
2022-10-11T11:15:12.436Z,20.82
2022-10-11T11:17:50.527Z,20.80
2022-10-11T11:20:32.022Z,20.78
2022-10-11T11:23:08.066Z,20.74
2022-10-11T11:27:09.783Z,20.70
2022-10-11T11:29:56.044Z,20.70
2022-10-11T11:33:13.491Z,20.66
2022-10-11T11:35:47.217Z,20.65
2022-10-11T11:38:29.344Z,20.65
2022-10-11T11:41:01.663Z,20.62
2022-10-11T11:43:38.511Z,20.57
2022-10-11T11:46:13.871Z,20.57
2022-10-11T11:48:43.767Z,20.57
2022-10-11T11:51:17.541Z,20.57
2022-10-11T11:53:56.647Z,20.55
2022-10-11T11:56:31.174Z,20.54
2022-10-11T11:59:21.031Z,20.58
2022-10-11T12:01:55.795Z,20.56
2022-10-11T12:04:29.028Z,20.57
2022-10-11T12:07:16.052Z,20.60
2022-10-11T12:09:51.547Z,20.58
2022-10-11T12:12:33.815Z,20.62
2022-10-11T12:15:22.045Z,20.66
2022-10-11T12:18:22.798Z,20.63
2022-10-11T12:21:03.756Z,20.67
2022-10-11T12:23:39.771Z,20.67
2022-10-11T12:26:32.513Z,20.67
2022-10-11T12:30:33.869Z,20.68
2022-10-11T12:33:13.965Z,20.70
2022-10-11T12:35:51.065Z,20.72
2022-10-11T12:38:39.542Z,20.70
2022-10-11T12:41:53.277Z,20.69
2022-10-11T12:44:26.152Z,20.73
2022-10-11T12:50:04.206Z,20.74
2022-10-11T12:52:52.612Z,20.73
2022-10-11T12:55:40.034Z,20.70
2022-10-11T12:58:46.135Z,20.67
2022-10-11T13:01:25.077Z,20.64
2022-10-11T13:04:09.696Z,20.64
2022-10-11T13:06:48.628Z,20.60
2022-10-11T13:09:32.780Z,20.64
2022-10-11T13:13:03.980Z,20.62
2022-10-11T13:15:31.963Z,20.65
2022-10-11T13:18:00.759Z,20.62
2022-10-11T13:20:36.327Z,20.61
2022-10-11T13:23:29.983Z,20.63
2022-10-11T13:26:00.613Z,20.62
2022-10-11T13:28:31.685Z,20.61
2022-10-11T13:31:04.242Z,20.61
2022-10-11T13:33:34.798Z,20.63
2022-10-11T13:36:04.956Z,20.60
2022-10-11T13:38:34.895Z,20.58
2022-10-11T13:41:07.800Z,20.59
2022-10-11T13:43:36.450Z,20.58
2022-10-11T13:46:07.611Z,20.59
2022-10-11T13:48:41.759Z,20.60
2022-10-11T13:51:28.031Z,20.58
2022-10-11T13:54:07.179Z,20.60
2022-10-11T13:56:48.349Z,20.59
2022-10-11T13:59:19.876Z,20.58
2022-10-11T14:01:49.321Z,20.59
2022-10-11T14:04:17.314Z,20.58
2022-10-11T14:06:51.867Z,20.56
2022-10-11T14:09:31.016Z,20.56
2022-10-11T14:12:17.313Z,20.57
2022-10-11T14:14:47.955Z,20.54
2022-10-11T14:17:24.406Z,20.53
2022-10-11T14:23:24.516Z,20.53
2022-10-11T14:25:52.997Z,20.54
2022-10-11T14:28:21.009Z,20.52
2022-10-11T14:30:49.470Z,20.51
2022-10-11T14:33:17.346Z,20.49
2022-10-11T14:35:45.362Z,20.58
2022-10-11T14:38:13.232Z,20.65
2022-10-11T14:40:41.457Z,20.58
2022-10-11T14:43:09.452Z,20.65
2022-10-11T14:45:37.697Z,20.54
2022-10-11T14:48:05.836Z,20.44
2022-10-11T14:50:45.027Z,20.45
2022-10-11T14:53:12.861Z,20.48
2022-10-11T14:55:41.748Z,20.53
2022-10-11T14:58:11.580Z,20.51
2022-10-11T15:00:39.741Z,20.52
2022-10-11T15:03:07.759Z,20.51
2022-10-11T15:05:37.026Z,20.50
2022-10-11T15:08:06.004Z,20.49
2022-10-11T15:10:38.189Z,20.50
2022-10-11T15:13:06.745Z,20.49
2022-10-11T15:15:36.878Z,20.44
2022-10-11T15:18:07.042Z,20.45
2022-10-11T15:20:36.509Z,20.46
2022-10-11T15:23:05.547Z,20.49
2022-10-11T15:25:34.328Z,20.51
2022-10-11T15:28:02.351Z,20.52
2022-10-11T15:30:33.196Z,20.49
2022-10-11T15:33:03.288Z,20.50
2022-10-11T15:35:31.317Z,20.50
2022-10-11T15:38:00.193Z,20.48
2022-10-11T15:40:33.036Z,20.49
2022-10-11T15:43:01.624Z,20.52
2022-10-11T15:45:29.809Z,20.51
2022-10-11T15:47:58.097Z,20.50
2022-10-11T15:50:39.644Z,20.52
2022-10-11T15:53:09.452Z,20.47
2022-10-11T15:55:39.322Z,20.46
2022-10-11T15:58:10.899Z,20.44
2022-10-11T16:00:38.902Z,20.46
2022-10-11T16:03:06.789Z,20.44
2022-10-11T16:05:34.805Z,20.47
2022-10-11T16:08:02.822Z,20.52
2022-10-11T16:10:30.650Z,20.50
2022-10-11T16:12:58.661Z,20.48
2022-10-11T16:15:26.930Z,20.48
2022-10-11T16:17:54.928Z,20.49
2022-10-11T16:20:24.576Z,20.50
2022-10-11T16:22:54.166Z,20.49
2022-10-11T16:25:22.505Z,20.51
2022-10-11T16:27:50.752Z,20.50
2022-10-11T16:30:19.338Z,20.50
2022-10-11T16:32:47.329Z,20.51
2022-10-11T16:35:16.225Z,20.50
2022-10-11T16:37:44.302Z,20.51
2022-10-11T16:40:15.535Z,20.50
2022-10-11T16:42:44.179Z,20.52
2022-10-11T16:45:13.006Z,20.52
2022-10-11T16:47:41.316Z,20.60
2022-10-11T16:50:09.911Z,20.62
2022-10-11T16:52:37.903Z,20.65
2022-10-11T16:55:06.290Z,20.59
2022-10-11T16:57:34.287Z,20.58
2022-10-11T17:00:02.322Z,20.59
2022-10-11T17:02:32.617Z,20.60
2022-10-11T17:05:00.978Z,20.61
2022-10-11T17:07:29.287Z,20.61
2022-10-11T17:09:57.988Z,20.64
2022-10-11T17:12:25.983Z,20.61
2022-10-11T17:14:54.013Z,20.61
2022-10-11T17:17:22.031Z,20.62
2022-10-11T17:19:50.068Z,20.63
2022-10-11T17:22:19.142Z,20.57
2022-10-11T17:24:47.226Z,20.61
2022-10-11T17:27:15.221Z,20.60
2022-10-11T17:29:43.252Z,20.59
2022-10-11T17:32:11.292Z,20.69
2022-10-11T17:34:39.126Z,20.70
2022-10-11T17:37:09.606Z,20.70
2022-10-11T17:39:37.628Z,20.68
2022-10-11T17:42:07.157Z,20.67
2022-10-11T17:44:35.888Z,20.65
2022-10-11T17:47:03.748Z,20.64
2022-10-11T17:49:32.595Z,20.71
2022-10-11T17:52:00.480Z,20.81
2022-10-11T17:54:28.473Z,20.85
2022-10-11T17:56:56.603Z,20.81
2022-10-11T17:59:27.278Z,20.77
2022-10-11T18:01:55.302Z,20.73
2022-10-11T18:04:26.546Z,20.71
2022-10-11T18:06:54.546Z,20.71
2022-10-11T18:09:22.687Z,20.84
2022-10-11T18:11:50.979Z,20.89
2022-10-11T18:14:21.359Z,20.85
2022-10-11T18:16:51.870Z,20.90
2022-10-11T18:19:19.884Z,20.86
2022-10-11T18:21:47.758Z,20.81
2022-10-11T18:24:16.668Z,20.77
2022-10-11T18:26:45.056Z,20.78
2022-10-11T18:29:13.332Z,20.78
2022-10-11T18:31:41.815Z,20.78
2022-10-11T18:34:10.879Z,20.79
2022-10-11T18:36:39.963Z,20.78
2022-10-11T18:39:09.373Z,20.77
2022-10-11T18:41:38.807Z,20.77
2022-10-11T18:44:08.202Z,20.78
2022-10-11T18:46:36.264Z,20.77
2022-10-11T18:49:04.545Z,20.77
2022-10-11T18:51:33.626Z,20.79
2022-10-11T18:54:01.655Z,20.77
2022-10-11T18:56:29.931Z,20.78
2022-10-11T18:58:59.479Z,20.71
2022-10-11T19:01:31.462Z,20.80
2022-10-11T19:04:02.559Z,20.72
2022-10-11T19:06:34.842Z,20.74
2022-10-11T19:09:04.975Z,20.86
2022-10-11T19:11:33.008Z,20.87
2022-10-11T19:14:02.680Z,20.93
2022-10-11T19:16:31.156Z,20.88
2022-10-11T19:18:59.149Z,20.77
2022-10-11T19:21:27.172Z,20.80
2022-10-11T19:23:55.525Z,20.78
2022-10-11T19:26:26.170Z,20.76
2022-10-11T19:28:58.287Z,20.75
2022-10-11T19:31:26.677Z,20.74
2022-10-11T19:33:54.629Z,20.75
2022-10-11T19:36:22.694Z,20.77
2022-10-11T19:38:51.359Z,20.75
2022-10-11T19:41:19.992Z,20.77
2022-10-11T19:43:48.052Z,20.74
2022-10-11T19:46:27.339Z,20.76
2022-10-11T19:49:07.288Z,20.74
2022-10-11T19:51:35.278Z,20.73
2022-10-11T19:54:04.360Z,20.73
2022-10-11T19:56:33.205Z,20.72
2022-10-11T19:59:01.696Z,20.72
2022-10-11T20:01:30.962Z,20.90
2022-10-11T20:04:05.745Z,20.82
2022-10-11T20:06:38.093Z,20.80
2022-10-11T20:12:05.372Z,20.78
2022-10-11T20:14:33.392Z,20.76
2022-10-11T20:17:01.390Z,20.73
2022-10-11T20:19:31.087Z,20.72
2022-10-11T20:22:00.008Z,20.71
2022-10-11T20:24:31.914Z,20.71
2022-10-11T20:26:59.914Z,20.71
2022-10-11T20:29:27.952Z,20.71
2022-10-11T20:31:56.267Z,20.71
2022-10-11T20:34:24.301Z,20.74
2022-10-11T20:36:52.354Z,20.70
2022-10-11T20:39:20.191Z,20.71
2022-10-11T20:41:48.228Z,20.71
2022-10-11T20:44:19.489Z,20.71
2022-10-11T20:46:47.481Z,20.70
2022-10-11T20:49:15.505Z,20.73
2022-10-11T20:51:43.475Z,20.72
2022-10-11T20:54:11.956Z,20.69
2022-10-11T20:56:39.954Z,20.69
2022-10-11T20:59:08.399Z,20.69
2022-10-11T21:01:37.717Z,20.67
2022-10-11T21:04:06.462Z,20.66
2022-10-11T21:06:35.151Z,20.64
2022-10-11T21:09:02.978Z,20.63
2022-10-11T21:11:31.824Z,20.62
2022-10-11T21:14:03.985Z,20.61
2022-10-11T21:16:32.635Z,20.59
2022-10-11T21:19:02.541Z,20.60
2022-10-11T21:21:30.672Z,20.60
2022-10-11T21:23:59.682Z,20.58
2022-10-11T21:26:27.922Z,20.57
2022-10-11T21:28:56.044Z,20.55
2022-10-11T21:31:23.924Z,20.53
2022-10-11T21:33:52.172Z,20.53
2022-10-11T21:36:20.784Z,20.53
2022-10-11T21:38:49.523Z,20.50
2022-10-11T21:41:18.811Z,20.49
2022-10-11T21:43:47.475Z,20.48
2022-10-11T21:46:22.792Z,20.48
2022-10-11T21:48:50.998Z,20.47
2022-10-11T21:51:23.413Z,20.47
2022-10-11T21:53:52.110Z,20.47
2022-10-11T21:56:20.386Z,20.45
2022-10-11T21:58:49.007Z,20.44
2022-10-11T22:01:18.037Z,20.42
2022-10-11T22:03:46.095Z,20.41
2022-10-11T22:06:14.553Z,20.42
2022-10-11T22:08:42.745Z,20.42
2022-10-11T22:11:10.968Z,20.43
2022-10-11T22:13:38.978Z,20.42
2022-10-11T22:16:08.052Z,20.41
2022-10-11T22:18:36.048Z,20.42
2022-10-11T22:21:05.134Z,20.42
2022-10-11T22:23:33.083Z,20.39
2022-10-11T22:26:07.630Z,20.40
2022-10-11T22:28:35.773Z,20.37
2022-10-11T22:31:05.078Z,20.40
2022-10-11T22:33:33.104Z,20.40
2022-10-11T22:36:02.042Z,20.40
2022-10-11T22:38:30.062Z,20.39
2022-10-11T22:40:58.607Z,20.39
2022-10-11T22:43:26.649Z,20.36
2022-10-11T22:45:54.675Z,20.37
2022-10-11T22:48:22.692Z,20.37
2022-10-11T22:50:51.166Z,20.35
2022-10-11T22:53:18.994Z,20.32
2022-10-11T22:55:47.501Z,20.33
2022-10-11T22:58:15.844Z,20.30
2022-10-11T23:00:44.020Z,20.31
2022-10-11T23:03:15.273Z,20.29
2022-10-11T23:05:43.209Z,20.32
2022-10-11T23:08:11.217Z,20.26
2022-10-11T23:10:39.661Z,20.27
2022-10-11T23:13:07.822Z,20.22
2022-10-11T23:15:39.726Z,20.27
2022-10-11T23:18:07.798Z,20.26
2022-10-11T23:20:35.810Z,20.25
2022-10-11T23:23:03.839Z,20.26
2022-10-11T23:25:31.814Z,20.24
2022-10-11T23:28:02.712Z,20.21
2022-10-11T23:30:30.853Z,20.22
2022-10-11T23:32:58.848Z,20.20
2022-10-11T23:35:26.859Z,20.16
2022-10-11T23:37:55.354Z,20.19
2022-10-11T23:40:23.578Z,20.20
2022-10-11T23:42:51.622Z,20.19
2022-10-11T23:45:19.636Z,20.18
2022-10-11T23:47:47.574Z,20.20
2022-10-11T23:50:15.598Z,20.17
2022-10-11T23:52:43.428Z,20.16
2022-10-11T23:55:11.428Z,20.18
2022-10-11T23:57:39.900Z,20.10
